Terminal Aerodrome Forecast
Issued by NWS Bismarck, ND

Home | Current Version | Previous Version | Graphics & Text | Print | Product List | Glossary On
Versions: 1 2 3 4 5 6 7 8 9 10 11 12 13 14 15 16 17 18 19 20 21 22
000
FTUS43 KBIS 280500
TAFBIS
TAF
KBIS 280535Z 2806/2906 02016G22KT P6SM SCT050
     FM280900 02016G22KT P6SM SCT030 BKN050
     FM281200 03015KT P6SM VCSH SCT020 BKN030 OVC050
     FM281800 04016G22KT P6SM VCSH BKN015 OVC025=

USA.gov is the U.S. government's official web portal to all federal, state and local government web resources and services.